createdAt,value
2024-02-29T00:00:49.078Z,96474.25
2024-02-29T00:03:18.837Z,96473.75
2024-02-29T00:05:46.725Z,96476.16
2024-02-29T00:08:14.599Z,96473.75
2024-02-29T00:10:42.461Z,96464.38
2024-02-29T00:13:12.190Z,96469.72
2024-02-29T00:15:40.120Z,96456.38
2024-02-29T00:18:08.428Z,96466.50
2024-02-29T00:20:38.137Z,96462.19
2024-02-29T00:23:06.279Z,96458.19
2024-02-29T00:25:34.163Z,96452.31
2024-02-29T00:28:02.307Z,96458.47
2024-02-29T00:30:30.216Z,96456.00
2024-02-29T00:32:58.566Z,96463.19
2024-02-29T00:35:26.589Z,96449.56
2024-02-29T00:37:55.849Z,96442.63
2024-02-29T00:40:23.852Z,96450.91
2024-02-29T00:42:52.301Z,96442.88
2024-02-29T00:45:20.258Z,96454.06
2024-02-29T00:47:48.243Z,96439.34
2024-02-29T00:50:16.289Z,96441.22
2024-02-29T00:52:44.195Z,96442.00
2024-02-29T00:55:13.954Z,96448.38
2024-02-29T00:57:42.513Z,96443.56
2024-02-29T01:00:12.813Z,96439.03
2024-02-29T01:02:40.682Z,96428.06
2024-02-29T01:05:09.385Z,96419.50
2024-02-29T01:07:37.681Z,96419.50
2024-02-29T01:10:06.614Z,96416.84
2024-02-29T01:12:40.577Z,96416.63
2024-02-29T01:15:09.670Z,96415.56
2024-02-29T01:17:37.957Z,96413.38
2024-02-29T01:20:07.097Z,96414.72
2024-02-29T01:22:35.025Z,96410.72
2024-02-29T01:25:03.124Z,96400.03
2024-02-29T01:27:31.178Z,96394.72
2024-02-29T01:30:00.442Z,96393.66
2024-02-29T01:32:30.131Z,96393.66
2024-02-29T01:35:00.318Z,96397.13
2024-02-29T01:37:28.226Z,96394.16
2024-02-29T01:39:56.177Z,96398.94
2024-02-29T01:42:24.085Z,96386.34
2024-02-29T01:44:55.230Z,96386.34
2024-02-29T01:47:25.454Z,96395.38
2024-02-29T01:49:57.085Z,96380.69
2024-02-29T01:52:27.237Z,96382.31
2024-02-29T01:54:55.309Z,96387.34
2024-02-29T01:57:23.475Z,96379.84
2024-02-29T01:59:52.313Z,96378.75
2024-02-29T02:02:20.240Z,96381.69
2024-02-29T02:04:49.636Z,96381.97
2024-02-29T02:07:17.902Z,96381.44
2024-02-29T02:09:46.901Z,96381.22
2024-02-29T02:12:15.812Z,96375.59
2024-02-29T02:14:43.703Z,96363.84
2024-02-29T02:17:12.147Z,96369.19
2024-02-29T02:19:41.210Z,96364.13
2024-02-29T02:22:10.958Z,96367.59
2024-02-29T02:24:39.335Z,96366.81
2024-02-29T02:27:07.598Z,96363.88
2024-02-29T02:29:35.466Z,96366.34
2024-02-29T02:32:03.389Z,96360.28
2024-02-29T02:34:31.695Z,96360.03
2024-02-29T02:36:59.734Z,96354.22
2024-02-29T02:39:29.088Z,96346.22
2024-02-29T02:41:57.012Z,96346.28
2024-02-29T02:44:24.881Z,96340.94
2024-02-29T02:46:52.753Z,96349.50
2024-02-29T02:49:20.670Z,96345.25
2024-02-29T02:51:48.701Z,96330.28
2024-02-29T02:54:16.690Z,96330.50
2024-02-29T02:56:46.063Z,96336.66
2024-02-29T02:59:13.984Z,96331.59
2024-02-29T03:01:41.899Z,96333.47
2024-02-29T03:04:09.875Z,96320.69
2024-02-29T03:06:37.846Z,96323.88
2024-02-29T03:09:09.670Z,96320.69
2024-02-29T03:11:37.576Z,96305.16
2024-02-29T03:14:07.029Z,96308.63
2024-02-29T03:16:36.627Z,96300.91
2024-02-29T03:19:06.011Z,96303.81
2024-02-29T03:21:34.172Z,96296.38
2024-02-29T03:24:02.173Z,96290.75
2024-02-29T03:26:30.489Z,96284.59
2024-02-29T03:28:58.394Z,96286.75
2024-02-29T03:31:27.773Z,96285.16
2024-02-29T03:33:55.786Z,96279.53
2024-02-29T03:36:23.666Z,96285.69
2024-02-29T03:38:51.571Z,96269.94
2024-02-29T03:41:19.455Z,96267.81
2024-02-29T03:43:47.368Z,96264.31
2024-02-29T03:46:15.309Z,96265.63
2024-02-29T03:48:44.662Z,96261.66
2024-02-29T03:51:12.561Z,96264.84
2024-02-29T03:53:40.683Z,96265.38
2024-02-29T03:56:08.855Z,96259.75
2024-02-29T03:58:36.988Z,96262.16
2024-02-29T04:01:06.606Z,96265.63
2024-02-29T04:03:34.742Z,96260.03
2024-02-29T04:06:04.132Z,96257.09
2024-02-29T04:08:32.496Z,96259.75
2024-02-29T04:11:00.467Z,96249.06
2024-02-29T04:13:28.417Z,96252.25
2024-02-29T04:15:56.459Z,96252.00
2024-02-29T04:18:24.412Z,96251.47
2024-02-29T04:20:52.741Z,96245.06
2024-02-29T04:23:23.032Z,96252.00
2024-02-29T04:25:50.929Z,96250.38
2024-02-29T04:28:18.970Z,96241.00
2024-02-29T04:30:49.618Z,96249.59
2024-02-29T04:33:17.684Z,96244.25
2024-02-29T04:35:45.721Z,96236.75
2024-02-29T04:38:13.727Z,96231.66
2024-02-29T04:40:43.025Z,96234.59
2024-02-29T04:43:10.998Z,96233.56
2024-02-29T04:45:39.008Z,96227.66
2024-02-29T04:48:08.073Z,96235.16
2024-02-29T04:50:36.154Z,96226.88
2024-02-29T04:53:04.070Z,96228.75
2024-02-29T04:55:32.751Z,96225.00
2024-02-29T04:58:02.231Z,96220.44
2024-02-29T05:00:30.201Z,96227.13
2024-02-29T05:02:58.157Z,96226.59
2024-02-29T05:05:26.130Z,96222.84
2024-02-29T05:07:54.101Z,96218.03
2024-02-29T05:10:22.709Z,96217.75
2024-02-29T05:12:51.721Z,96219.63
2024-02-29T05:15:22.048Z,96212.69
2024-02-29T05:17:50.018Z,96204.66
2024-02-29T05:20:18.301Z,96208.44
2024-02-29T05:22:46.191Z,96207.88
2024-02-29T05:25:14.567Z,96210.03
2024-02-29T05:27:43.217Z,96209.25
2024-02-29T05:30:12.179Z,96209.25
2024-02-29T05:32:41.516Z,96203.66
2024-02-29T05:35:10.245Z,96197.22
2024-02-29T05:37:38.187Z,96204.72
2024-02-29T05:40:08.420Z,96188.91
2024-02-29T05:42:36.473Z,96194.53
2024-02-29T05:45:07.311Z,96196.94
2024-02-29T05:47:35.282Z,96202.28
2024-02-29T05:50:05.024Z,96196.16
2024-02-29T05:52:32.990Z,96196.69
2024-02-29T05:55:01.007Z,96200.69
2024-02-29T05:57:31.901Z,96198.00
2024-02-29T06:00:01.602Z,96199.88
2024-02-29T06:02:38.732Z,96199.06
2024-02-29T06:05:09.988Z,96203.59
2024-02-29T06:07:38.263Z,96193.69
2024-02-29T06:10:10.173Z,96199.81
2024-02-29T06:12:38.383Z,96201.97
2024-02-29T06:15:10.712Z,96204.38
2024-02-29T06:17:39.435Z,96200.63
2024-02-29T06:20:11.631Z,96204.38
2024-02-29T06:22:41.571Z,96205.72
2024-02-29T06:25:11.260Z,96197.66
2024-02-29T06:27:40.327Z,96200.88
2024-02-29T06:30:10.218Z,96197.88
2024-02-29T06:32:41.576Z,96202.97
2024-02-29T06:35:11.451Z,96198.63
2024-02-29T06:37:41.594Z,96195.41
2024-02-29T06:40:12.261Z,96196.44
2024-02-29T06:42:40.487Z,96191.84
2024-02-29T06:45:10.331Z,96202.00
2024-02-29T06:47:40.894Z,96196.59
2024-02-29T06:50:10.122Z,96193.66
2024-02-29T06:52:39.500Z,96202.47
2024-02-29T06:55:09.278Z,96196.28
2024-02-29T06:57:37.776Z,96198.13
2024-02-29T07:00:07.408Z,96193.00
2024-02-29T07:02:35.660Z,96195.13
2024-02-29T07:05:03.718Z,96189.19
2024-02-29T07:07:31.694Z,96194.22
2024-02-29T07:10:01.138Z,96191.25
2024-02-29T07:12:29.089Z,96186.38
2024-02-29T07:14:57.899Z,96184.44
2024-02-29T07:17:25.773Z,96183.06
2024-02-29T07:19:53.679Z,96168.00
2024-02-29T07:22:21.637Z,96174.06
2024-02-29T07:24:49.492Z,96176.44
2024-02-29T07:27:18.732Z,96174.22
2024-02-29T07:29:46.603Z,96177.94
2024-02-29T07:32:14.464Z,96172.03
2024-02-29T07:34:42.312Z,96176.25
2024-02-29T07:37:10.163Z,96170.31
2024-02-29T07:39:38.054Z,96175.34
2024-02-29T07:42:06.280Z,96162.34
2024-02-29T07:44:36.358Z,96162.53
2024-02-29T07:47:04.202Z,96159.53
2024-02-29T07:49:32.949Z,96163.75
2024-02-29T07:52:01.102Z,96163.41
2024-02-29T07:54:29.065Z,96149.63
2024-02-29T07:56:57.283Z,96154.84
2024-02-29T07:59:26.652Z,96149.72
2024-02-29T08:01:55.982Z,96150.09
2024-02-29T08:04:23.935Z,96150.75
2024-02-29T08:06:51.858Z,96144.50
2024-02-29T08:09:19.759Z,96133.31
2024-02-29T08:11:48.222Z,96138.75
2024-02-29T08:14:19.017Z,96140.56
2024-02-29T08:16:48.436Z,96122.34
2024-02-29T08:19:18.131Z,96126.75
2024-02-29T08:21:46.102Z,96128.78
2024-02-29T08:24:13.963Z,96126.59
2024-02-29T08:26:42.198Z,96128.31
2024-02-29T08:29:14.380Z,96117.78
2024-02-29T08:31:45.020Z,96118.09
2024-02-29T08:34:13.011Z,96114.13
2024-02-29T08:36:42.436Z,96109.16
2024-02-29T08:39:10.397Z,96105.19
2024-02-29T08:41:38.398Z,96105.31
2024-02-29T08:44:06.316Z,96101.50
2024-02-29T08:46:34.194Z,96094.03
2024-02-29T08:49:03.646Z,96088.75
2024-02-29T08:51:32.725Z,96094.53
2024-02-29T08:54:02.009Z,96085.25
2024-02-29T08:56:29.920Z,96083.41
2024-02-29T08:58:57.797Z,96086.00
2024-02-29T09:01:25.805Z,96079.91
2024-02-29T09:03:54.222Z,96081.41
2024-02-29T09:06:22.097Z,96071.31
2024-02-29T09:08:50.318Z,96073.63
2024-02-29T09:11:19.878Z,96076.25
2024-02-29T09:13:47.768Z,96072.31
2024-02-29T09:16:17.336Z,96068.38
2024-02-29T09:18:45.488Z,96065.41
2024-02-29T09:21:13.426Z,96069.31
2024-02-29T09:23:41.648Z,96056.66
2024-02-29T09:26:09.607Z,96055.28
2024-02-29T09:28:38.872Z,96053.94
2024-02-29T09:31:06.739Z,96051.94
2024-02-29T09:33:34.608Z,96050.41
2024-02-29T09:36:08.046Z,96049.16
2024-02-29T09:38:36.718Z,96046.00
2024-02-29T09:41:13.234Z,96050.00
2024-02-29T09:43:55.847Z,96039.69
2024-02-29T09:46:25.202Z,96037.81
2024-02-29T09:48:53.769Z,96034.66
2024-02-29T09:51:22.983Z,96034.69
2024-02-29T09:53:54.127Z,96024.53
2024-02-29T09:56:24.271Z,96018.81
2024-02-29T09:58:54.732Z,96016.25
2024-02-29T10:01:23.135Z,96011.97
2024-02-29T10:03:51.675Z,96011.50
2024-02-29T10:06:19.867Z,96011.31
2024-02-29T10:08:47.745Z,96001.72
2024-02-29T10:11:16.249Z,96010.31
2024-02-29T10:13:44.161Z,96006.88
2024-02-29T10:16:15.084Z,96000.19
2024-02-29T10:18:43.154Z,95996.47
2024-02-29T10:21:11.922Z,95993.00
2024-02-29T10:23:40.697Z,95995.66
2024-02-29T10:26:09.691Z,95986.28
2024-02-29T10:28:37.783Z,95984.84
2024-02-29T10:31:06.082Z,95980.34
2024-02-29T10:33:39.411Z,95975.06
2024-02-29T10:36:12.797Z,95973.59
2024-02-29T10:38:40.825Z,95968.41
2024-02-29T10:41:10.121Z,95968.88
2024-02-29T10:43:39.538Z,95963.34
2024-02-29T10:46:08.309Z,95960.88
2024-02-29T10:48:47.646Z,95954.06
2024-02-29T10:51:27.188Z,95951.03
2024-02-29T10:54:06.374Z,95950.53
2024-02-29T10:56:37.254Z,95954.50
2024-02-29T10:59:08.181Z,95954.59
2024-02-29T11:01:38.250Z,95948.13
2024-02-29T11:04:08.152Z,95956.78
2024-02-29T11:06:39.873Z,95945.72
2024-02-29T11:09:10.352Z,95952.81
2024-02-29T11:11:39.178Z,95953.31
2024-02-29T11:14:11.486Z,95941.41
2024-02-29T11:16:40.971Z,95932.22
2024-02-29T11:19:12.629Z,95921.28
2024-02-29T11:21:41.088Z,95917.28
2024-02-29T11:24:10.473Z,95912.53
2024-02-29T11:26:39.424Z,95908.13
2024-02-29T11:29:14.013Z,95909.34
2024-02-29T11:31:47.891Z,95905.59
2024-02-29T11:34:18.012Z,95899.56
2024-02-29T11:36:48.220Z,95898.41
2024-02-29T11:39:18.616Z,95896.16
2024-02-29T11:41:46.582Z,95902.66
2024-02-29T11:44:14.587Z,95895.28
2024-02-29T11:46:47.112Z,95897.16
2024-02-29T11:49:15.928Z,95890.47
2024-02-29T11:51:46.214Z,95890.88
2024-02-29T11:54:15.413Z,95885.97
2024-02-29T11:56:43.542Z,95877.69
2024-02-29T11:59:12.183Z,95880.00
2024-02-29T12:01:40.338Z,95861.09
2024-02-29T12:04:08.512Z,95870.78
2024-02-29T12:06:38.096Z,95865.59
2024-02-29T12:09:11.601Z,95857.75
2024-02-29T12:11:40.042Z,95863.44
2024-02-29T12:14:09.433Z,95854.97
2024-02-29T12:16:38.896Z,95851.53
2024-02-29T12:19:08.167Z,95853.25
2024-02-29T12:21:37.314Z,95847.97
2024-02-29T12:24:08.984Z,95844.19
2024-02-29T12:26:39.109Z,95843.66
2024-02-29T12:29:08.370Z,95840.47
2024-02-29T12:31:38.040Z,95835.44
2024-02-29T12:34:07.812Z,95828.59
2024-02-29T12:36:35.800Z,95819.53
2024-02-29T12:39:03.836Z,95825.28
2024-02-29T12:41:33.151Z,95822.78
2024-02-29T12:44:02.421Z,95818.16
2024-02-29T12:46:30.555Z,95807.88
2024-02-29T12:48:58.522Z,95801.53
2024-02-29T12:51:27.631Z,95802.53
2024-02-29T12:53:55.520Z,95811.97
2024-02-29T12:56:23.396Z,95807.19
2024-02-29T12:58:52.650Z,95802.78
2024-02-29T13:01:20.664Z,95799.78
2024-02-29T13:03:48.775Z,95795.31
2024-02-29T13:06:16.807Z,95790.69
2024-02-29T13:08:45.726Z,95787.84
2024-02-29T13:11:13.612Z,95783.06
2024-02-29T13:13:41.559Z,95776.03
2024-02-29T13:16:11.279Z,95767.91
2024-02-29T13:18:39.241Z,95762.00
2024-02-29T13:21:07.659Z,95755.75
2024-02-29T13:23:35.605Z,95762.16
2024-02-29T13:26:03.968Z,95753.16
2024-02-29T13:28:32.319Z,95746.69
2024-02-29T13:31:00.217Z,95744.25
2024-02-29T13:33:29.622Z,95743.53
2024-02-29T13:35:57.601Z,95733.84
2024-02-29T13:38:25.676Z,95730.91
2024-02-29T13:40:53.709Z,95732.88
2024-02-29T13:43:21.739Z,95726.69
2024-02-29T13:45:49.848Z,95721.06
2024-02-29T13:48:17.852Z,95720.59
2024-02-29T13:50:47.278Z,95707.66
2024-02-29T13:53:15.738Z,95701.41
2024-02-29T13:55:46.458Z,95700.41
2024-02-29T13:58:17.631Z,95694.03
2024-02-29T14:00:46.028Z,95694.44
2024-02-29T14:03:14.100Z,95696.34
2024-02-29T14:05:42.038Z,95678.63
2024-02-29T14:08:11.400Z,95671.88
2024-02-29T14:10:39.362Z,95672.78
2024-02-29T14:13:08.029Z,95661.13
2024-02-29T14:15:35.974Z,95658.88
2024-02-29T14:18:06.359Z,95656.63
2024-02-29T14:20:34.293Z,95662.50
2024-02-29T14:23:02.256Z,95657.88
2024-02-29T14:25:31.767Z,95657.88
2024-02-29T14:27:59.931Z,95649.53
2024-02-29T14:30:27.841Z,95649.03
2024-02-29T14:32:55.793Z,95645.41
2024-02-29T14:35:23.717Z,95642.28
2024-02-29T14:37:51.701Z,95638.91
2024-02-29T14:40:21.533Z,95638.34
2024-02-29T14:42:51.664Z,95640.84
2024-02-29T14:45:19.659Z,95630.81
2024-02-29T14:47:47.691Z,95626.84
2024-02-29T14:50:15.612Z,95616.91
2024-02-29T14:52:43.606Z,95620.72
2024-02-29T14:55:11.724Z,95608.31
2024-02-29T14:57:39.810Z,95615.19
2024-02-29T15:00:15.167Z,95609.25
2024-02-29T15:02:43.491Z,95600.81
2024-02-29T15:05:12.462Z,95598.69
2024-02-29T15:07:42.108Z,95591.56
2024-02-29T15:10:12.322Z,95599.47
2024-02-29T15:12:40.382Z,95598.59
2024-02-29T15:15:11.136Z,95597.75
2024-02-29T15:17:39.655Z,95597.41
2024-02-29T15:20:10.205Z,95596.94
2024-02-29T15:22:38.205Z,95590.34
2024-02-29T15:25:15.577Z,95588.09
2024-02-29T15:27:45.054Z,95580.72
2024-02-29T15:30:14.772Z,95576.69
2024-02-29T15:32:42.830Z,95572.16
2024-02-29T15:35:11.047Z,95562.00
2024-02-29T15:37:38.993Z,95557.50
2024-02-29T15:40:09.462Z,95567.81
2024-02-29T15:42:37.693Z,95547.47
2024-02-29T15:45:06.712Z,95548.81
2024-02-29T15:47:36.148Z,95543.56
2024-02-29T15:50:04.513Z,95555.06
2024-02-29T15:52:32.434Z,95551.66
2024-02-29T15:55:01.076Z,95547.03
2024-02-29T15:57:29.321Z,95547.25
2024-02-29T15:59:57.742Z,95547.25
2024-02-29T16:02:26.093Z,95543.25
2024-02-29T16:04:56.095Z,95548.97
2024-02-29T16:07:24.121Z,95557.69
2024-02-29T16:09:52.133Z,95542.69
2024-02-29T16:12:21.264Z,95547.53
2024-02-29T16:14:49.888Z,95550.81
2024-02-29T16:17:17.891Z,95534.84
2024-02-29T16:19:46.761Z,95530.56
2024-02-29T16:22:16.850Z,95532.59
2024-02-29T16:24:44.784Z,95529.28
2024-02-29T16:27:12.721Z,95529.28
2024-02-29T16:29:40.854Z,95530.75
2024-02-29T16:32:09.067Z,95529.81
2024-02-29T16:34:37.557Z,95519.41
2024-02-29T16:37:06.585Z,95519.84
2024-02-29T16:39:36.403Z,95527.81
2024-02-29T16:42:05.934Z,95527.03
2024-02-29T16:44:33.814Z,95529.94
2024-02-29T16:47:02.448Z,95518.69
2024-02-29T16:49:30.674Z,95526.63
2024-02-29T16:51:58.730Z,95522.66
2024-02-29T16:54:26.718Z,95524.31
2024-02-29T16:56:56.272Z,95514.69
2024-02-29T16:59:24.210Z,95525.00
2024-02-29T17:01:52.198Z,95512.28
2024-02-29T17:04:20.246Z,95509.00
2024-02-29T17:06:48.313Z,95515.03
2024-02-29T17:09:16.368Z,95507.75
2024-02-29T17:11:44.314Z,95507.28
2024-02-29T17:14:13.605Z,95507.97
2024-02-29T17:16:41.488Z,95514.47
2024-02-29T17:19:09.453Z,95509.91
2024-02-29T17:21:39.446Z,95501.34
2024-02-29T17:24:08.303Z,95494.69
2024-02-29T17:26:36.226Z,95496.31
2024-02-29T17:29:04.133Z,95489.97
2024-02-29T17:31:33.471Z,95483.00
2024-02-29T17:34:01.677Z,95495.34
2024-02-29T17:36:29.617Z,95493.47
2024-02-29T17:38:57.521Z,95496.19
2024-02-29T17:41:25.445Z,95497.47
2024-02-29T17:43:53.339Z,95489.56
2024-02-29T17:46:21.268Z,95501.31
2024-02-29T17:48:50.583Z,95493.06
2024-02-29T17:51:18.514Z,95482.47
2024-02-29T17:53:46.535Z,95486.28
2024-02-29T17:56:14.591Z,95485.00
2024-02-29T17:58:42.518Z,95478.69
2024-02-29T18:01:12.062Z,95477.75
2024-02-29T18:03:41.390Z,95474.09
2024-02-29T18:06:10.829Z,95466.81
2024-02-29T18:08:38.795Z,95466.31
2024-02-29T18:11:06.850Z,95460.47
2024-02-29T18:13:34.777Z,95455.72
2024-02-29T18:16:02.908Z,95443.19
2024-02-29T18:18:30.881Z,95450.50
2024-02-29T18:20:58.860Z,95459.25
2024-02-29T18:23:28.173Z,95449.56
2024-02-29T18:25:56.716Z,95453.53
2024-02-29T18:28:24.991Z,95440.50
2024-02-29T18:30:52.958Z,95438.78
2024-02-29T18:33:20.891Z,95440.06
2024-02-29T18:35:48.848Z,95426.41
2024-02-29T18:38:16.790Z,95433.09
2024-02-29T18:40:46.175Z,95428.22
2024-02-29T18:43:14.184Z,95422.97
2024-02-29T18:45:42.232Z,95416.63
2024-02-29T18:48:10.477Z,95410.31
2024-02-29T18:50:38.410Z,95414.41
2024-02-29T18:53:08.608Z,95409.50
2024-02-29T18:55:38.068Z,95399.53
2024-02-29T18:58:07.786Z,95402.19
2024-02-29T19:00:35.753Z,95401.09
2024-02-29T19:03:03.818Z,95400.91
2024-02-29T19:05:32.379Z,95396.31
2024-02-29T19:08:00.326Z,95395.81
2024-02-29T19:10:28.314Z,95394.50
2024-02-29T19:12:56.275Z,95391.16
2024-02-29T19:15:25.573Z,95396.50
2024-02-29T19:17:53.534Z,95398.66
2024-02-29T19:20:21.752Z,95393.25
2024-02-29T19:22:49.694Z,95397.66
2024-02-29T19:25:17.769Z,95384.97
2024-02-29T19:27:45.867Z,95385.41
2024-02-29T19:30:14.560Z,95386.28
2024-02-29T19:32:43.969Z,95377.41
2024-02-29T19:35:13.052Z,95366.78
2024-02-29T19:37:41.434Z,95363.63
2024-02-29T19:40:10.565Z,95358.41
2024-02-29T19:42:41.437Z,95362.38
2024-02-29T19:45:10.523Z,95365.69
2024-02-29T19:47:38.935Z,95363.94
2024-02-29T19:50:09.364Z,95366.41
2024-02-29T19:52:37.341Z,95352.28
2024-02-29T19:55:06.892Z,95352.88
2024-02-29T19:57:34.952Z,95346.72
2024-02-29T20:00:05.161Z,95365.19
2024-02-29T20:02:40.159Z,95358.56
2024-02-29T20:05:10.632Z,95350.63
2024-02-29T20:07:38.516Z,95353.13
2024-02-29T20:10:07.336Z,95349.66
2024-02-29T20:12:35.281Z,95343.97
2024-02-29T20:15:06.796Z,95344.28
2024-02-29T20:17:34.783Z,95339.84
2024-02-29T20:20:02.700Z,95339.03
2024-02-29T20:22:32.155Z,95336.97
2024-02-29T20:25:00.121Z,95330.72
2024-02-29T20:27:28.123Z,95333.34
2024-02-29T20:29:56.075Z,95323.53
2024-02-29T20:32:24.043Z,95326.31
2024-02-29T20:34:51.965Z,95321.06
2024-02-29T20:37:20.946Z,95332.22
2024-02-29T20:39:50.346Z,95333.50
2024-02-29T20:42:18.929Z,95336.50
2024-02-29T20:44:46.867Z,95331.53
2024-02-29T20:47:14.808Z,95324.69
2024-02-29T20:49:42.730Z,95329.75
2024-02-29T20:52:13.619Z,95334.63
2024-02-29T20:54:43.154Z,95327.28
2024-02-29T20:57:12.489Z,95325.50
2024-02-29T20:59:40.728Z,95326.41
2024-02-29T21:02:08.702Z,95332.25
2024-02-29T21:04:36.662Z,95325.50
2024-02-29T21:07:04.668Z,95320.34
2024-02-29T21:09:32.573Z,95326.50
2024-02-29T21:12:00.522Z,95317.38
2024-02-29T21:14:30.066Z,95313.91
2024-02-29T21:16:58.015Z,95322.94
2024-02-29T21:19:26.196Z,95317.38
2024-02-29T21:21:54.134Z,95317.78
2024-02-29T21:24:22.045Z,95316.09
2024-02-29T21:26:49.924Z,95314.00
2024-02-29T21:29:17.907Z,95320.56
2024-02-29T21:31:47.967Z,95311.22
2024-02-29T21:34:15.930Z,95314.72
2024-02-29T21:36:43.800Z,95317.97
2024-02-29T21:39:12.169Z,95314.00
2024-02-29T21:41:40.643Z,95309.25
2024-02-29T21:44:10.928Z,95302.91
2024-02-29T21:46:38.865Z,95305.28
2024-02-29T21:49:09.648Z,95301.50
2024-02-29T21:51:37.599Z,95298.34
2024-02-29T21:54:06.113Z,95298.72
2024-02-29T21:56:33.980Z,95298.56
2024-02-29T21:59:01.821Z,95296.16
2024-02-29T22:01:29.738Z,95299.34
2024-02-29T22:03:57.812Z,95292.41
2024-02-29T22:06:27.265Z,95291.81
2024-02-29T22:08:55.126Z,95275.47
2024-02-29T22:11:23.062Z,95277.84
2024-02-29T22:13:49.916Z,95275.66
2024-02-29T22:16:17.887Z,95278.63
2024-02-29T22:18:47.077Z,95276.06
2024-02-29T22:21:14.961Z,95270.19
2024-02-29T22:23:44.249Z,95272.38
2024-02-29T22:26:12.096Z,95270.13
2024-02-29T22:28:40.140Z,95264.03
2024-02-29T22:31:08.053Z,95268.59
2024-02-29T22:33:35.946Z,95263.88
2024-02-29T22:36:04.290Z,95253.75
2024-02-29T22:38:32.161Z,95252.75
2024-02-29T22:41:02.130Z,95252.44
2024-02-29T22:43:30.158Z,95256.91
2024-02-29T22:45:58.400Z,95257.41
2024-02-29T22:48:26.327Z,95253.06
2024-02-29T22:50:54.235Z,95252.75
2024-02-29T22:53:22.240Z,95249.59
2024-02-29T22:55:51.521Z,95242.16
2024-02-29T22:58:21.463Z,95236.41
2024-02-29T23:03:21.841Z,95230.78
2024-02-29T23:05:49.998Z,95229.91
2024-02-29T23:08:18.176Z,95217.31
2024-02-29T23:10:46.269Z,95215.22
2024-02-29T23:13:14.347Z,95213.25
2024-02-29T23:15:43.616Z,95208.41
2024-02-29T23:18:11.530Z,95216.31
2024-02-29T23:20:39.458Z,95219.47
2024-02-29T23:23:07.343Z,95219.78
2024-02-29T23:25:36.086Z,95217.41
2024-02-29T23:28:04.526Z,95209.97
2024-02-29T23:30:32.623Z,95207.19
2024-02-29T23:33:03.498Z,95202.25
2024-02-29T23:35:31.465Z,95201.47
2024-02-29T23:37:59.361Z,95202.25
2024-02-29T23:40:29.285Z,95200.69
2024-02-29T23:42:57.460Z,95193.94
2024-02-29T23:45:25.486Z,95201.06
2024-02-29T23:47:53.956Z,95189.00
2024-02-29T23:50:25.783Z,95195.34
2024-02-29T23:52:53.635Z,95191.84
2024-02-29T23:55:26.432Z,95200.19
2024-02-29T23:57:54.834Z,95195.22
